createdAt,value
2022-11-21T07:06:04.265Z,16.85
2022-11-21T07:11:25.460Z,19.35
2022-11-21T07:16:31.755Z,19.63
2022-11-21T07:21:33.789Z,19.73
2022-11-21T07:26:35.805Z,19.58
2022-11-21T07:31:37.874Z,18.58
2022-11-21T07:36:39.925Z,19.83
2022-11-21T07:41:41.945Z,20.92
2022-11-21T07:46:43.972Z,23.15
2022-11-21T07:51:45.970Z,18.20
2022-11-21T07:56:47.993Z,19.40
2022-11-21T08:01:51.736Z,21.02
2022-11-21T08:06:53.773Z,20.83
2022-11-21T08:11:55.779Z,19.90
2022-11-21T08:16:57.798Z,20.75
2022-11-21T08:22:00.014Z,21.12
2022-11-21T08:27:02.066Z,20.57
2022-11-21T08:32:04.207Z,20.92
2022-11-21T08:37:06.296Z,20.88
2022-11-21T08:42:08.274Z,21.07
2022-11-21T08:47:10.262Z,18.08
2022-11-21T08:52:14.182Z,16.05
2022-11-21T08:57:16.271Z,19.80
2022-11-21T09:02:18.312Z,21.80
2022-11-21T09:07:20.343Z,20.83
2022-11-21T09:12:22.442Z,20.50
2022-11-21T09:17:42.710Z,19.10
2022-11-21T09:22:44.730Z,21.10
2022-11-21T09:27:47.005Z,21.50
2022-11-21T09:32:49.166Z,20.97
2022-11-21T09:37:52.025Z,22.17
2022-11-21T09:43:22.033Z,19.73
2022-11-21T09:48:26.902Z,23.23
2022-11-21T09:53:34.586Z,21.97
2022-11-21T09:58:42.369Z,25.88
2022-11-21T10:03:47.384Z,23.17
2022-11-21T10:08:52.611Z,22.13
2022-11-21T10:14:02.996Z,20.48
2022-11-21T10:19:32.043Z,18.58
2022-11-21T10:24:57.691Z,18.60
2022-11-21T10:30:04.628Z,17.48
2022-11-21T10:35:19.351Z,16.67
2022-11-21T10:40:35.382Z,17.80
2022-11-21T10:45:37.449Z,17.27
2022-11-21T10:51:21.666Z,18.67
2022-11-21T10:56:26.754Z,19.80
2022-11-21T11:01:35.079Z,18.63
2022-11-21T11:06:38.878Z,18.23
2022-11-21T11:11:40.934Z,18.92
2022-11-21T11:16:46.208Z,17.97
2022-11-21T11:21:49.572Z,17.92
2022-11-21T11:26:59.455Z,17.95
2022-11-21T11:32:05.119Z,18.20
2022-11-21T11:37:19.538Z,18.63
2022-11-21T11:42:49.189Z,17.08
2022-11-21T11:47:56.778Z,18.25
2022-11-21T11:53:17.349Z,18.67
2022-11-21T11:58:25.738Z,19.92
2022-11-21T12:03:50.953Z,19.45
2022-11-21T12:09:06.497Z,19.43
2022-11-21T12:15:16.398Z,18.70
2022-11-21T12:20:23.228Z,18.75
2022-11-21T12:25:37.584Z,18.60
2022-11-21T12:30:51.654Z,20.27
2022-11-21T12:36:35.674Z,19.37
2022-11-21T12:42:06.795Z,19.77
2022-11-21T12:48:05.198Z,19.73
2022-11-21T12:53:51.248Z,19.90
2022-11-21T12:58:56.269Z,18.87
2022-11-21T13:04:09.133Z,17.73
2022-11-21T13:09:18.466Z,19.30
2022-11-21T13:14:33.062Z,19.52
2022-11-21T13:19:44.040Z,18.73
2022-11-21T13:24:47.290Z,19.17
2022-11-21T13:30:07.579Z,18.48
2022-11-21T13:35:21.812Z,16.85
2022-11-21T13:40:26.561Z,15.57
2022-11-21T13:45:43.892Z,16.30
2022-11-21T13:50:52.351Z,14.63
2022-11-21T13:56:28.772Z,13.43
2022-11-21T14:01:58.719Z,13.75
2022-11-21T14:07:38.018Z,13.23
2022-11-21T14:12:44.828Z,13.97
2022-11-21T14:17:58.726Z,11.70
2022-11-21T14:23:16.292Z,10.15
2022-11-21T14:28:26.941Z,10.15
2022-11-21T14:33:37.481Z,9.70
2022-11-21T14:38:50.990Z,10.05
2022-11-21T14:44:00.903Z,9.02
2022-11-21T14:49:25.887Z,9.80
2022-11-21T14:54:59.955Z,9.70
2022-11-21T15:00:07.104Z,8.57
2022-11-21T15:05:29.020Z,9.90
2022-11-21T15:10:38.180Z,10.33
2022-11-21T15:15:48.185Z,14.13
2022-11-21T15:20:54.019Z,14.30
2022-11-21T15:26:00.993Z,14.67
2022-11-21T15:31:21.938Z,14.85
2022-11-21T15:36:24.158Z,10.65
2022-11-21T15:41:35.943Z,9.17
2022-11-21T15:46:42.022Z,9.90
2022-11-21T15:57:12.055Z,9.67
2022-11-21T16:02:15.066Z,12.60
2022-11-21T16:07:17.227Z,12.00
2022-11-21T16:12:19.301Z,9.57
2022-11-21T16:17:21.426Z,8.57
2022-11-21T16:22:23.448Z,20.62
2022-11-21T16:27:25.483Z,11.02
2022-11-21T16:32:27.968Z,10.00
2022-11-21T16:37:33.307Z,9.35
2022-11-21T16:42:35.310Z,10.07
2022-11-21T16:47:38.102Z,10.03
2022-11-21T16:52:40.175Z,10.97
2022-11-21T16:57:43.191Z,10.60
2022-11-21T17:02:45.233Z,10.13
2022-11-21T17:07:47.796Z,11.40
2022-11-21T17:12:49.829Z,10.43
2022-11-21T17:17:52.063Z,10.30
2022-11-21T17:22:54.070Z,9.90
2022-11-21T17:27:56.939Z,9.60
2022-11-21T17:32:58.985Z,10.60
2022-11-21T17:38:01.000Z,9.93
2022-11-21T17:43:03.263Z,10.97
2022-11-21T17:48:05.575Z,11.50
2022-11-21T17:53:07.759Z,11.90
2022-11-21T17:58:12.965Z,12.10
2022-11-21T18:03:14.995Z,12.35
2022-11-21T18:08:17.213Z,13.35
2022-11-21T18:13:19.280Z,13.20
2022-11-21T18:18:24.086Z,12.00
2022-11-21T18:23:27.863Z,12.20
2022-11-21T18:28:30.425Z,12.27
2022-11-21T18:33:32.476Z,13.30
2022-11-21T18:38:58.506Z,13.88
2022-11-21T18:44:04.766Z,13.55
2022-11-21T18:49:08.045Z,13.63
2022-11-21T18:54:11.159Z,13.55
2022-11-21T18:59:13.363Z,12.93
2022-11-21T19:04:15.620Z,12.97
2022-11-21T19:09:17.701Z,12.65
2022-11-21T19:14:19.958Z,13.32
2022-11-21T19:19:37.478Z,13.53
2022-11-21T19:24:39.590Z,13.00
2022-11-21T19:29:41.595Z,13.45
2022-11-21T19:34:43.574Z,13.68
2022-11-21T19:39:45.582Z,13.67
2022-11-21T19:44:47.638Z,14.87
2022-11-21T19:49:49.658Z,14.13
2022-11-21T19:54:51.709Z,13.30
2022-11-21T19:59:53.732Z,16.45
2022-11-21T20:04:55.765Z,15.30
2022-11-21T20:09:57.786Z,14.97
2022-11-21T20:14:59.789Z,16.37
2022-11-21T20:20:01.871Z,17.25
2022-11-21T20:25:04.109Z,17.12
